sensor_id;sensor_type;location;lat;lon;timestamp;pressure;altitude;pressure_sealevel;temperature
20867;BMP280;10593;48.398;10.698;2023-06-14T00:01:44;95708.66;;;24.51
20867;BMP280;10593;48.398;10.698;2023-06-14T00:04:14;95707.94;;;24.49
20867;BMP280;10593;48.398;10.698;2023-06-14T00:06:43;95704.72;;;24.45
20867;BMP280;10593;48.398;10.698;2023-06-14T00:09:11;95710.22;;;24.42
20867;BMP280;10593;48.398;10.698;2023-06-14T00:11:41;95713.97;;;24.40
20867;BMP280;10593;48.398;10.698;2023-06-14T00:14:07;95714.19;;;24.37
20867;BMP280;10593;48.398;10.698;2023-06-14T00:16:33;95707.50;;;24.33
20867;BMP280;10593;48.398;10.698;2023-06-14T00:19:03;95705.94;;;24.30
20867;BMP280;10593;48.398;10.698;2023-06-14T00:21:30;95705.25;;;24.28
20867;BMP280;10593;48.398;10.698;2023-06-14T00:23:58;95699.41;;;24.25
20867;BMP280;10593;48.398;10.698;2023-06-14T00:26:24;95699.78;;;24.20
20867;BMP280;10593;48.398;10.698;2023-06-14T00:28:52;95700.00;;;24.17
20867;BMP280;10593;48.398;10.698;2023-06-14T00:31:20;95702.88;;;24.14
20867;BMP280;10593;48.398;10.698;2023-06-14T00:33:46;95711.00;;;24.11
20867;BMP280;10593;48.398;10.698;2023-06-14T00:36:12;95699.91;;;24.08
20867;BMP280;10593;48.398;10.698;2023-06-14T00:38:38;95703.59;;;24.05
20867;BMP280;10593;48.398;10.698;2023-06-14T00:41:04;95706.47;;;24.02
20867;BMP280;10593;48.398;10.698;2023-06-14T00:43:29;95700.63;;;23.99
20867;BMP280;10593;48.398;10.698;2023-06-14T00:45:55;95705.31;;;23.95
20867;BMP280;10593;48.398;10.698;2023-06-14T00:48:21;95702.06;;;23.92
20867;BMP280;10593;48.398;10.698;2023-06-14T00:50:50;95704.09;;;23.88
20867;BMP280;10593;48.398;10.698;2023-06-14T00:53:19;95703.50;;;23.85
20867;BMP280;10593;48.398;10.698;2023-06-14T00:55:46;95696.78;;;23.81
20867;BMP280;10593;48.398;10.698;2023-06-14T00:58:13;95703.25;;;23.77
20867;BMP280;10593;48.398;10.698;2023-06-14T01:00:39;95711.38;;;23.74
20867;BMP280;10593;48.398;10.698;2023-06-14T01:03:05;95706.31;;;23.71
20867;BMP280;10593;48.398;10.698;2023-06-14T01:05:32;95701.31;;;23.68
20867;BMP280;10593;48.398;10.698;2023-06-14T01:08:18;95708.59;;;23.64
20867;BMP280;10593;48.398;10.698;2023-06-14T01:11:08;95706.47;;;23.58
20867;BMP280;10593;48.398;10.698;2023-06-14T01:13:41;95704.06;;;23.56
20867;BMP280;10593;48.398;10.698;2023-06-14T01:16:09;95699.06;;;23.53
20867;BMP280;10593;48.398;10.698;2023-06-14T01:18:36;95694.03;;;23.50
20867;BMP280;10593;48.398;10.698;2023-06-14T01:21:02;95696.91;;;23.47
20867;BMP280;10593;48.398;10.698;2023-06-14T01:23:32;95700.59;;;23.44
20867;BMP280;10593;48.398;10.698;2023-06-14T01:25:59;95702.41;;;23.44
20867;BMP280;10593;48.398;10.698;2023-06-14T01:28:29;95705.25;;;23.41
20867;BMP280;10593;48.398;10.698;2023-06-14T01:31:01;95704.50;;;23.39
20867;BMP280;10593;48.398;10.698;2023-06-14T01:33:30;95696.88;;;23.36
20867;BMP280;10593;48.398;10.698;2023-06-14T01:35:57;95697.97;;;23.33
20867;BMP280;10593;48.398;10.698;2023-06-14T01:38:26;95706.06;;;23.30
20867;BMP280;10593;48.398;10.698;2023-06-14T01:40:55;95695.81;;;23.27
20867;BMP280;10593;48.398;10.698;2023-06-14T01:43:23;95697.81;;;23.24
20867;BMP280;10593;48.398;10.698;2023-06-14T01:45:51;95701.53;;;23.21
20867;BMP280;10593;48.398;10.698;2023-06-14T01:48:18;95697.34;;;23.19
20867;BMP280;10593;48.398;10.698;2023-06-14T01:50:45;95697.56;;;23.16
20867;BMP280;10593;48.398;10.698;2023-06-14T01:53:11;95699.59;;;23.12
20867;BMP280;10593;48.398;10.698;2023-06-14T01:55:37;95691.94;;;23.09
20867;BMP280;10593;48.398;10.698;2023-06-14T01:58:04;95699.09;;;23.07
20867;BMP280;10593;48.398;10.698;2023-06-14T02:00:30;95695.00;;;23.03
20867;BMP280;10593;48.398;10.698;2023-06-14T02:02:56;95694.28;;;23.01
20867;BMP280;10593;48.398;10.698;2023-06-14T02:05:21;95696.28;;;22.98
20867;BMP280;10593;48.398;10.698;2023-06-14T02:07:47;95699.13;;;22.95
20867;BMP280;10593;48.398;10.698;2023-06-14T02:10:13;95694.13;;;22.92
20867;BMP280;10593;48.398;10.698;2023-06-14T02:12:39;95700.44;;;22.89
20867;BMP280;10593;48.398;10.698;2023-06-14T02:15:06;95700.66;;;22.86
20867;BMP280;10593;48.398;10.698;2023-06-14T02:17:32;95697.44;;;22.83
20867;BMP280;10593;48.398;10.698;2023-06-14T02:19:58;95693.38;;;22.79
20867;BMP280;10593;48.398;10.698;2023-06-14T02:22:25;95698.84;;;22.76
20867;BMP280;10593;48.398;10.698;2023-06-14T02:24:50;95701.81;;;22.71
20867;BMP280;10593;48.398;10.698;2023-06-14T02:27:16;95701.19;;;22.68
20867;BMP280;10593;48.398;10.698;2023-06-14T02:32:08;95693.06;;;22.60
20867;BMP280;10593;48.398;10.698;2023-06-14T02:34:34;95696.84;;;22.56
20867;BMP280;10593;48.398;10.698;2023-06-14T02:37:01;95695.31;;;22.53
20867;BMP280;10593;48.398;10.698;2023-06-14T02:39:29;95695.50;;;22.50
20867;BMP280;10593;48.398;10.698;2023-06-14T02:41:54;95699.22;;;22.48
20867;BMP280;10593;48.398;10.698;2023-06-14T02:44:24;95700.25;;;22.45
20867;BMP280;10593;48.398;10.698;2023-06-14T02:46:54;95698.69;;;22.43
20867;BMP280;10593;48.398;10.698;2023-06-14T02:49:22;95694.63;;;22.39
20867;BMP280;10593;48.398;10.698;2023-06-14T02:51:48;95706.88;;;22.38
20867;BMP280;10593;48.398;10.698;2023-06-14T02:54:13;95697.53;;;22.34
20867;BMP280;10593;48.398;10.698;2023-06-14T02:56:39;95696.00;;;22.32
20867;BMP280;10593;48.398;10.698;2023-06-14T02:59:06;95703.22;;;22.28
20867;BMP280;10593;48.398;10.698;2023-06-14T03:01:33;95707.75;;;22.26
20867;BMP280;10593;48.398;10.698;2023-06-14T03:04:09;95705.31;;;22.23
20867;BMP280;10593;48.398;10.698;2023-06-14T03:06:35;95705.56;;;22.20
20867;BMP280;10593;48.398;10.698;2023-06-14T03:09:02;95709.97;;;22.20
20867;BMP280;10593;48.398;10.698;2023-06-14T03:11:31;95704.94;;;22.17
20867;BMP280;10593;48.398;10.698;2023-06-14T03:13:57;95706.94;;;22.13
20867;BMP280;10593;48.398;10.698;2023-06-14T03:16:23;95707.06;;;22.12
20867;BMP280;10593;48.398;10.698;2023-06-14T03:18:53;95707.28;;;22.09
20867;BMP280;10593;48.398;10.698;2023-06-14T03:21:19;95710.13;;;22.06
20867;BMP280;10593;48.398;10.698;2023-06-14T03:23:47;95715.53;;;22.03
20867;BMP280;10593;48.398;10.698;2023-06-14T03:26:13;95720.06;;;22.01
20867;BMP280;10593;48.398;10.698;2023-06-14T03:28:47;95721.13;;;21.98
20867;BMP280;10593;48.398;10.698;2023-06-14T03:31:13;95718.69;;;21.95
20867;BMP280;10593;48.398;10.698;2023-06-14T03:33:39;95717.97;;;21.93
20867;BMP280;10593;48.398;10.698;2023-06-14T03:36:06;95716.41;;;21.91
20867;BMP280;10593;48.398;10.698;2023-06-14T03:38:34;95720.91;;;21.89
20867;BMP280;10593;48.398;10.698;2023-06-14T03:41:00;95729.84;;;21.86
20867;BMP280;10593;48.398;10.698;2023-06-14T03:43:27;95732.63;;;21.83
20867;BMP280;10593;48.398;10.698;2023-06-14T03:45:53;95729.31;;;21.81
20867;BMP280;10593;48.398;10.698;2023-06-14T03:48:18;95730.38;;;21.79
20867;BMP280;10593;48.398;10.698;2023-06-14T03:50:44;95729.63;;;21.77
20867;BMP280;10593;48.398;10.698;2023-06-14T03:53:10;95735.91;;;21.74
20867;BMP280;10593;48.398;10.698;2023-06-14T03:55:36;95733.53;;;21.71
20867;BMP280;10593;48.398;10.698;2023-06-14T03:58:03;95738.84;;;21.70
20867;BMP280;10593;48.398;10.698;2023-06-14T04:00:29;95738.13;;;21.68
20867;BMP280;10593;48.398;10.698;2023-06-14T04:02:54;95744.38;;;21.65
20867;BMP280;10593;48.398;10.698;2023-06-14T04:05:20;95745.34;;;21.64
20867;BMP280;10593;48.398;10.698;2023-06-14T04:07:46;95749.81;;;21.62
20867;BMP280;10593;48.398;10.698;2023-06-14T04:10:15;95745.63;;;21.60
20867;BMP280;10593;48.398;10.698;2023-06-14T04:12:42;95754.41;;;21.59
20867;BMP280;10593;48.398;10.698;2023-06-14T04:15:08;95764.84;;;21.59
20867;BMP280;10593;48.398;10.698;2023-06-14T04:17:35;95769.28;;;21.58
20867;BMP280;10593;48.398;10.698;2023-06-14T04:20:02;95761.50;;;21.57
20867;BMP280;10593;48.398;10.698;2023-06-14T04:22:30;95767.56;;;21.57
20867;BMP280;10593;48.398;10.698;2023-06-14T04:24:57;95772.78;;;21.57
20867;BMP280;10593;48.398;10.698;2023-06-14T04:27:23;95773.66;;;21.58
20867;BMP280;10593;48.398;10.698;2023-06-14T04:29:52;95768.41;;;21.58
20867;BMP280;10593;48.398;10.698;2023-06-14T04:32:26;95772.69;;;21.59
20867;BMP280;10593;48.398;10.698;2023-06-14T04:34:55;95766.66;;;21.58
20867;BMP280;10593;48.398;10.698;2023-06-14T04:37:22;95772.69;;;21.59
20867;BMP280;10593;48.398;10.698;2023-06-14T04:39:50;95776.06;;;21.61
20867;BMP280;10593;48.398;10.698;2023-06-14T04:42:17;95778.56;;;21.62
20867;BMP280;10593;48.398;10.698;2023-06-14T04:44:46;95779.34;;;21.64
20867;BMP280;10593;48.398;10.698;2023-06-14T04:47:13;95781.72;;;21.67
20867;BMP280;10593;48.398;10.698;2023-06-14T04:49:40;95786.88;;;21.69
20867;BMP280;10593;48.398;10.698;2023-06-14T04:52:06;95784.88;;;21.72
20867;BMP280;10593;48.398;10.698;2023-06-14T04:54:32;95777.78;;;21.74
20867;BMP280;10593;48.398;10.698;2023-06-14T04:56:59;95789.78;;;21.77
20867;BMP280;10593;48.398;10.698;2023-06-14T04:59:25;95792.94;;;21.82
20867;BMP280;10593;48.398;10.698;2023-06-14T05:01:51;95791.03;;;21.84
20867;BMP280;10593;48.398;10.698;2023-06-14T05:04:19;95796.06;;;21.87
20867;BMP280;10593;48.398;10.698;2023-06-14T05:06:45;95795.84;;;21.90
20867;BMP280;10593;48.398;10.698;2023-06-14T05:09:13;95788.63;;;21.93
20867;BMP280;10593;48.398;10.698;2023-06-14T05:11:39;95799.72;;;21.97
20867;BMP280;10593;48.398;10.698;2023-06-14T05:14:05;95799.50;;;22.00
20867;BMP280;10593;48.398;10.698;2023-06-14T05:16:31;95795.72;;;22.04
20867;BMP280;10593;48.398;10.698;2023-06-14T05:18:58;95798.97;;;22.07
20867;BMP280;10593;48.398;10.698;2023-06-14T05:21:24;95789.13;;;22.11
20867;BMP280;10593;48.398;10.698;2023-06-14T05:23:49;95791.44;;;22.15
20867;BMP280;10593;48.398;10.698;2023-06-14T05:26:16;95797.28;;;22.19
20867;BMP280;10593;48.398;10.698;2023-06-14T05:28:42;95793.50;;;22.23
20867;BMP280;10593;48.398;10.698;2023-06-14T05:31:08;95804.63;;;22.26
20867;BMP280;10593;48.398;10.698;2023-06-14T05:33:33;95805.97;;;22.32
20867;BMP280;10593;48.398;10.698;2023-06-14T05:35:59;95804.78;;;22.36
20867;BMP280;10593;48.398;10.698;2023-06-14T05:38:25;95807.13;;;22.40
20867;BMP280;10593;48.398;10.698;2023-06-14T05:40:51;95802.47;;;22.44
20867;BMP280;10593;48.398;10.698;2023-06-14T05:43:16;95803.97;;;22.48
20867;BMP280;10593;48.398;10.698;2023-06-14T05:45:42;95801.03;;;22.52
20867;BMP280;10593;48.398;10.698;2023-06-14T05:48:07;95803.28;;;22.57
20867;BMP280;10593;48.398;10.698;2023-06-14T05:50:33;95806.44;;;22.62
20867;BMP280;10593;48.398;10.698;2023-06-14T05:52:59;95809.53;;;22.67
20867;BMP280;10593;48.398;10.698;2023-06-14T05:55:24;95809.22;;;22.71
20867;BMP280;10593;48.398;10.698;2023-06-14T05:57:50;95822.00;;;22.76
20867;BMP280;10593;48.398;10.698;2023-06-14T06:00:17;95808.66;;;22.79
20867;BMP280;10593;48.398;10.698;2023-06-14T06:02:44;95811.91;;;22.82
20867;BMP280;10593;48.398;10.698;2023-06-14T06:05:11;95808.22;;;22.85
20867;BMP280;10593;48.398;10.698;2023-06-14T06:07:37;95812.28;;;22.89
20867;BMP280;10593;48.398;10.698;2023-06-14T06:10:05;95811.97;;;22.93
20867;BMP280;10593;48.398;10.698;2023-06-14T06:12:32;95814.03;;;23.01
20867;BMP280;10593;48.398;10.698;2023-06-14T06:14:59;95816.19;;;23.07
20867;BMP280;10593;48.398;10.698;2023-06-14T06:17:25;95816.59;;;23.13
20867;BMP280;10593;48.398;10.698;2023-06-14T06:19:51;95823.09;;;23.20
20867;BMP280;10593;48.398;10.698;2023-06-14T06:22:17;95821.81;;;23.26
20867;BMP280;10593;48.398;10.698;2023-06-14T06:24:43;95819.75;;;23.29
20867;BMP280;10593;48.398;10.698;2023-06-14T06:27:08;95818.94;;;23.29
20867;BMP280;10593;48.398;10.698;2023-06-14T06:29:35;95829.31;;;23.30
20867;BMP280;10593;48.398;10.698;2023-06-14T06:32:01;95823.94;;;23.32
20867;BMP280;10593;48.398;10.698;2023-06-14T06:34:28;95823.84;;;23.33
20867;BMP280;10593;48.398;10.698;2023-06-14T06:36:53;95822.06;;;23.34
20867;BMP280;10593;48.398;10.698;2023-06-14T06:39:19;95819.91;;;23.39
20867;BMP280;10593;48.398;10.698;2023-06-14T06:41:45;95821.13;;;23.46
20867;BMP280;10593;48.398;10.698;2023-06-14T06:44:10;95830.34;;;23.51
20867;BMP280;10593;48.398;10.698;2023-06-14T06:46:36;95831.66;;;23.57
20867;BMP280;10593;48.398;10.698;2023-06-14T06:49:07;95832.16;;;23.61
20867;BMP280;10593;48.398;10.698;2023-06-14T06:51:35;95839.56;;;23.67
20867;BMP280;10593;48.398;10.698;2023-06-14T06:54:01;95838.38;;;23.71
20867;BMP280;10593;48.398;10.698;2023-06-14T06:56:27;95844.63;;;23.81
20867;BMP280;10593;48.398;10.698;2023-06-14T06:58:53;95833.66;;;23.87
20867;BMP280;10593;48.398;10.698;2023-06-14T07:01:19;95841.09;;;23.93
20867;BMP280;10593;48.398;10.698;2023-06-14T07:03:45;95842.38;;;23.99
20867;BMP280;10593;48.398;10.698;2023-06-14T07:06:12;95842.03;;;24.03
20867;BMP280;10593;48.398;10.698;2023-06-14T07:08:38;95833.81;;;24.08
20867;BMP280;10593;48.398;10.698;2023-06-14T07:11:05;95836.19;;;24.11
20867;BMP280;10593;48.398;10.698;2023-06-14T07:13:31;95831.56;;;24.14
20867;BMP280;10593;48.398;10.698;2023-06-14T07:15:59;95844.34;;;24.19
20867;BMP280;10593;48.398;10.698;2023-06-14T07:18:26;95847.78;;;24.19
20867;BMP280;10593;48.398;10.698;2023-06-14T07:20:53;95838.22;;;24.18
20867;BMP280;10593;48.398;10.698;2023-06-14T07:23:20;95840.75;;;24.20
20867;BMP280;10593;48.398;10.698;2023-06-14T07:25:46;95841.47;;;24.22
20867;BMP280;10593;48.398;10.698;2023-06-14T07:28:12;95843.84;;;24.25
20867;BMP280;10593;48.398;10.698;2023-06-14T07:30:37;95852.31;;;24.28
20867;BMP280;10593;48.398;10.698;2023-06-14T07:33:03;95851.13;;;24.32
20867;BMP280;10593;48.398;10.698;2023-06-14T07:35:29;95849.25;;;24.34
20867;BMP280;10593;48.398;10.698;2023-06-14T07:37:54;95856.16;;;24.35
20867;BMP280;10593;48.398;10.698;2023-06-14T07:40:20;95853.19;;;24.40
20867;BMP280;10593;48.398;10.698;2023-06-14T07:42:46;95854.59;;;24.44
20867;BMP280;10593;48.398;10.698;2023-06-14T07:45:14;95856.88;;;24.48
20867;BMP280;10593;48.398;10.698;2023-06-14T07:47:40;95856.63;;;24.51
20867;BMP280;10593;48.398;10.698;2023-06-14T07:50:06;95854.50;;;24.56
20867;BMP280;10593;48.398;10.698;2023-06-14T07:52:31;95855.72;;;24.63
20867;BMP280;10593;48.398;10.698;2023-06-14T07:54:57;95863.22;;;24.68
20867;BMP280;10593;48.398;10.698;2023-06-14T07:57:24;95858.19;;;24.76
20867;BMP280;10593;48.398;10.698;2023-06-14T07:59:50;95864.75;;;24.81
20867;BMP280;10593;48.398;10.698;2023-06-14T08:02:16;95864.13;;;24.89
20867;BMP280;10593;48.398;10.698;2023-06-14T08:04:42;95860.19;;;24.94
20867;BMP280;10593;48.398;10.698;2023-06-14T08:07:08;95864.81;;;25.02
20867;BMP280;10593;48.398;10.698;2023-06-14T08:09:35;95861.84;;;25.06
20867;BMP280;10593;48.398;10.698;2023-06-14T08:12:04;95864.09;;;25.11
20867;BMP280;10593;48.398;10.698;2023-06-14T08:14:33;95865.41;;;25.16
20867;BMP280;10593;48.398;10.698;2023-06-14T08:16:59;95864.28;;;25.19
20867;BMP280;10593;48.398;10.698;2023-06-14T08:19:25;95868.25;;;25.24
20867;BMP280;10593;48.398;10.698;2023-06-14T08:21:50;95866.09;;;25.29
20867;BMP280;10593;48.398;10.698;2023-06-14T08:24:16;95876.13;;;25.35
20867;BMP280;10593;48.398;10.698;2023-06-14T08:26:42;95873.13;;;25.40
20867;BMP280;10593;48.398;10.698;2023-06-14T08:29:08;95860.41;;;25.45
20867;BMP280;10593;48.398;10.698;2023-06-14T08:31:34;95866.16;;;25.50
20867;BMP280;10593;48.398;10.698;2023-06-14T08:34:00;95872.72;;;25.55
20867;BMP280;10593;48.398;10.698;2023-06-14T08:36:25;95874.94;;;25.60
20867;BMP280;10593;48.398;10.698;2023-06-14T08:38:51;95877.19;;;25.64
20867;BMP280;10593;48.398;10.698;2023-06-14T08:41:22;95877.66;;;25.69
20867;BMP280;10593;48.398;10.698;2023-06-14T08:43:52;95879.06;;;25.73
20867;BMP280;10593;48.398;10.698;2023-06-14T08:46:18;95874.25;;;25.78
20867;BMP280;10593;48.398;10.698;2023-06-14T08:48:48;95875.09;;;25.79
20867;BMP280;10593;48.398;10.698;2023-06-14T08:51:18;95874.03;;;25.81
20867;BMP280;10593;48.398;10.698;2023-06-14T08:53:44;95883.44;;;25.83
20867;BMP280;10593;48.398;10.698;2023-06-14T08:56:11;95884.88;;;25.88
20867;BMP280;10593;48.398;10.698;2023-06-14T08:58:46;95885.72;;;25.88
20867;BMP280;10593;48.398;10.698;2023-06-14T09:01:13;95881.44;;;25.87
20867;BMP280;10593;48.398;10.698;2023-06-14T09:03:43;95883.09;;;25.88
20867;BMP280;10593;48.398;10.698;2023-06-14T09:06:10;95882.97;;;25.90
20867;BMP280;10593;48.398;10.698;2023-06-14T09:08:43;95875.63;;;25.93
20867;BMP280;10593;48.398;10.698;2023-06-14T09:11:14;95879.00;;;25.95
20867;BMP280;10593;48.398;10.698;2023-06-14T09:13:41;95876.91;;;25.98
20867;BMP280;10593;48.398;10.698;2023-06-14T09:16:08;95881.81;;;26.03
20867;BMP280;10593;48.398;10.698;2023-06-14T09:18:39;95881.44;;;26.07
20867;BMP280;10593;48.398;10.698;2023-06-14T09:21:08;95882.81;;;26.11
20867;BMP280;10593;48.398;10.698;2023-06-14T09:23:38;95885.94;;;26.16
20867;BMP280;10593;48.398;10.698;2023-06-14T09:26:22;95887.44;;;26.19
20867;BMP280;10593;48.398;10.698;2023-06-14T09:28:50;95890.53;;;26.24
20867;BMP280;10593;48.398;10.698;2023-06-14T09:31:20;95889.31;;;26.28
20867;BMP280;10593;48.398;10.698;2023-06-14T09:33:48;95885.31;;;26.33
20867;BMP280;10593;48.398;10.698;2023-06-14T09:36:26;95892.69;;;26.39
20867;BMP280;10593;48.398;10.698;2023-06-14T09:38:57;95892.31;;;26.44
20867;BMP280;10593;48.398;10.698;2023-06-14T09:41:38;95891.22;;;26.46
20867;BMP280;10593;48.398;10.698;2023-06-14T09:44:08;95890.84;;;26.51
20867;BMP280;10593;48.398;10.698;2023-06-14T09:46:35;95886.00;;;26.56
20867;BMP280;10593;48.398;10.698;2023-06-14T09:49:03;95890.03;;;26.60
20867;BMP280;10593;48.398;10.698;2023-06-14T09:51:30;95896.75;;;26.64
20867;BMP280;10593;48.398;10.698;2023-06-14T09:54:02;95898.69;;;26.62
20867;BMP280;10593;48.398;10.698;2023-06-14T09:56:34;95904.06;;;26.60
20867;BMP280;10593;48.398;10.698;2023-06-14T09:59:04;95900.59;;;26.60
20867;BMP280;10593;48.398;10.698;2023-06-14T10:01:31;95898.91;;;26.59
20867;BMP280;10593;48.398;10.698;2023-06-14T10:04:04;95890.03;;;26.60
20867;BMP280;10593;48.398;10.698;2023-06-14T10:06:32;95892.56;;;26.61
20867;BMP280;10593;48.398;10.698;2023-06-14T10:09:00;95895.09;;;26.63
20867;BMP280;10593;48.398;10.698;2023-06-14T10:11:27;95885.50;;;26.62
20867;BMP280;10593;48.398;10.698;2023-06-14T10:13:54;95887.28;;;26.61
20867;BMP280;10593;48.398;10.698;2023-06-14T10:19:48;95881.81;;;26.53
20867;BMP280;10593;48.398;10.698;2023-06-14T10:22:26;95885.31;;;26.54
20867;BMP280;10593;48.398;10.698;2023-06-14T10:24:55;95881.72;;;26.55
20867;BMP280;10593;48.398;10.698;2023-06-14T10:27:21;95879.78;;;26.57
20867;BMP280;10593;48.398;10.698;2023-06-14T10:30:01;95879.50;;;26.60
20867;BMP280;10593;48.398;10.698;2023-06-14T10:32:28;95881.91;;;26.63
20867;BMP280;10593;48.398;10.698;2023-06-14T10:35:05;95877.44;;;26.63
20867;BMP280;10593;48.398;10.698;2023-06-14T10:37:32;95878.53;;;26.61
20867;BMP280;10593;48.398;10.698;2023-06-14T10:39:58;95878.97;;;26.56
20867;BMP280;10593;48.398;10.698;2023-06-14T10:42:31;95881.59;;;26.56
20867;BMP280;10593;48.398;10.698;2023-06-14T10:44:58;95871.16;;;26.55
20867;BMP280;10593;48.398;10.698;2023-06-14T10:47:35;95877.13;;;26.57
20867;BMP280;10593;48.398;10.698;2023-06-14T10:50:09;95879.06;;;26.55
20867;BMP280;10593;48.398;10.698;2023-06-14T10:52:41;95874.78;;;26.54
20867;BMP280;10593;48.398;10.698;2023-06-14T10:55:13;95871.56;;;26.50
20867;BMP280;10593;48.398;10.698;2023-06-14T10:57:54;95875.41;;;26.46
20867;BMP280;10593;48.398;10.698;2023-06-14T11:00:27;95878.31;;;26.43
20867;BMP280;10593;48.398;10.698;2023-06-14T11:03:43;95872.47;;;26.40
20867;BMP280;10593;48.398;10.698;2023-06-14T11:06:17;95877.72;;;26.40
20867;BMP280;10593;48.398;10.698;2023-06-14T11:09:12;95871.50;;;26.41
20867;BMP280;10593;48.398;10.698;2023-06-14T11:11:46;95874.13;;;26.41
20867;BMP280;10593;48.398;10.698;2023-06-14T11:14:12;95870.41;;;26.43
20867;BMP280;10593;48.398;10.698;2023-06-14T11:16:38;95873.84;;;26.44
20867;BMP280;10593;48.398;10.698;2023-06-14T11:19:03;95869.97;;;26.48
20867;BMP280;10593;48.398;10.698;2023-06-14T11:21:32;95876.72;;;26.52
20867;BMP280;10593;48.398;10.698;2023-06-14T11:23:58;95882.41;;;26.57
20867;BMP280;10593;48.398;10.698;2023-06-14T11:26:29;95870.63;;;26.61
20867;BMP280;10593;48.398;10.698;2023-06-14T11:29:00;95871.19;;;26.64
20867;BMP280;10593;48.398;10.698;2023-06-14T11:31:27;95873.56;;;26.67
20867;BMP280;10593;48.398;10.698;2023-06-14T11:33:55;95870.41;;;26.73
20867;BMP280;10593;48.398;10.698;2023-06-14T11:36:33;95875.97;;;26.80
20867;BMP280;10593;48.398;10.698;2023-06-14T11:39:04;95872.09;;;26.84
20867;BMP280;10593;48.398;10.698;2023-06-14T11:41:45;95870.16;;;26.86
20867;BMP280;10593;48.398;10.698;2023-06-14T11:44:11;95868.22;;;26.88
20867;BMP280;10593;48.398;10.698;2023-06-14T11:46:37;95862.00;;;26.89
20867;BMP280;10593;48.398;10.698;2023-06-14T11:49:04;95862.00;;;26.89
20867;BMP280;10593;48.398;10.698;2023-06-14T11:51:36;95869.06;;;26.88
20867;BMP280;10593;48.398;10.698;2023-06-14T11:54:03;95850.47;;;26.90
20867;BMP280;10593;48.398;10.698;2023-06-14T11:56:31;95851.88;;;26.94
20867;BMP280;10593;48.398;10.698;2023-06-14T11:58:57;95847.00;;;26.99
20867;BMP280;10593;48.398;10.698;2023-06-14T12:01:23;95850.78;;;27.06
20867;BMP280;10593;48.398;10.698;2023-06-14T12:03:54;95847.63;;;27.12
20867;BMP280;10593;48.398;10.698;2023-06-14T12:06:30;95846.25;;;27.17
20867;BMP280;10593;48.398;10.698;2023-06-14T12:09:04;95859.03;;;27.22
20867;BMP280;10593;48.398;10.698;2023-06-14T12:11:34;95855.84;;;27.28
20867;BMP280;10593;48.398;10.698;2023-06-14T12:14:03;95851.69;;;27.35
20867;BMP280;10593;48.398;10.698;2023-06-14T12:16:37;95850.31;;;27.40
20867;BMP280;10593;48.398;10.698;2023-06-14T12:19:15;95849.91;;;27.45
20867;BMP280;10593;48.398;10.698;2023-06-14T12:21:41;95849.19;;;27.52
20867;BMP280;10593;48.398;10.698;2023-06-14T12:24:08;95840.72;;;27.58
20867;BMP280;10593;48.398;10.698;2023-06-14T12:26:38;95846.44;;;27.63
20867;BMP280;10593;48.398;10.698;2023-06-14T12:29:07;95847.81;;;27.67
20867;BMP280;10593;48.398;10.698;2023-06-14T12:31:33;95844.88;;;27.70
20867;BMP280;10593;48.398;10.698;2023-06-14T12:33:59;95843.91;;;27.71
20867;BMP280;10593;48.398;10.698;2023-06-14T12:36:25;95853.66;;;27.71
20867;BMP280;10593;48.398;10.698;2023-06-14T12:38:51;95849.19;;;27.71
20867;BMP280;10593;48.398;10.698;2023-06-14T12:41:21;95849.78;;;27.75
20867;BMP280;10593;48.398;10.698;2023-06-14T12:43:48;95851.16;;;27.79
20867;BMP280;10593;48.398;10.698;2023-06-14T12:46:13;95851.84;;;27.81
20867;BMP280;10593;48.398;10.698;2023-06-14T12:48:39;95853.25;;;27.85
20867;BMP280;10593;48.398;10.698;2023-06-14T12:51:05;95851.28;;;27.87
20867;BMP280;10593;48.398;10.698;2023-06-14T12:53:30;95851.97;;;27.89
20867;BMP280;10593;48.398;10.698;2023-06-14T12:55:56;95852.66;;;27.91
20867;BMP280;10593;48.398;10.698;2023-06-14T12:58:22;95859.50;;;27.93
20867;BMP280;10593;48.398;10.698;2023-06-14T13:00:49;95862.81;;;27.95
20867;BMP280;10593;48.398;10.698;2023-06-14T13:03:15;95867.25;;;27.95
20867;BMP280;10593;48.398;10.698;2023-06-14T13:05:41;95867.25;;;27.95
20867;BMP280;10593;48.398;10.698;2023-06-14T13:08:07;95869.91;;;27.95
20867;BMP280;10593;48.398;10.698;2023-06-14T13:10:34;95867.25;;;27.95
20867;BMP280;10593;48.398;10.698;2023-06-14T13:12:59;95862.81;;;27.95
20867;BMP280;10593;48.398;10.698;2023-06-14T13:15:26;95864.47;;;27.96
20867;BMP280;10593;48.398;10.698;2023-06-14T13:17:52;95868.66;;;27.99
20867;BMP280;10593;48.398;10.698;2023-06-14T13:20:18;95855.28;;;28.00
20867;BMP280;10593;48.398;10.698;2023-06-14T13:22:44;95858.63;;;28.02
20867;BMP280;10593;48.398;10.698;2023-06-14T13:25:09;95863.78;;;28.04
20867;BMP280;10593;48.398;10.698;2023-06-14T13:27:35;95857.50;;;28.05
20867;BMP280;10593;48.398;10.698;2023-06-14T13:30:01;95847.50;;;28.08
20867;BMP280;10593;48.398;10.698;2023-06-14T13:32:27;95845.41;;;28.12
20867;BMP280;10593;48.398;10.698;2023-06-14T13:34:53;95852.88;;;28.16
20867;BMP280;10593;48.398;10.698;2023-06-14T13:37:19;95846.50;;;28.18
20867;BMP280;10593;48.398;10.698;2023-06-14T13:39:45;95851.47;;;28.21
20867;BMP280;10593;48.398;10.698;2023-06-14T13:42:10;95851.66;;;28.20
20867;BMP280;10593;48.398;10.698;2023-06-14T13:44:37;95843.72;;;28.20
20867;BMP280;10593;48.398;10.698;2023-06-14T13:47:02;95837.44;;;28.21
20867;BMP280;10593;48.398;10.698;2023-06-14T13:49:28;95843.56;;;28.21
20867;BMP280;10593;48.398;10.698;2023-06-14T13:51:54;95843.41;;;28.23
20867;BMP280;10593;48.398;10.698;2023-06-14T13:54:20;95844.09;;;28.25
20867;BMP280;10593;48.398;10.698;2023-06-14T13:56:47;95841.34;;;28.26
20867;BMP280;10593;48.398;10.698;2023-06-14T13:59:13;95843.00;;;28.27
20867;BMP280;10593;48.398;10.698;2023-06-14T14:01:39;95842.84;;;28.29
20867;BMP280;10593;48.398;10.698;2023-06-14T14:04:05;95848.00;;;28.30
20867;BMP280;10593;48.398;10.698;2023-06-14T14:06:31;95846.06;;;28.32